METAR Data
IDs: Format: Raw Decoded Include TAF

Data at: 2118 UTC 02 Aug 2021

LPFR 022100Z 32008KT CAVOK 24/18 Q1014